createdAt,value
2024-02-15T00:01:34.488Z,1.57
2024-02-15T00:04:02.383Z,1.47
2024-02-15T00:06:30.473Z,1.20
2024-02-15T00:08:58.514Z,1.63
2024-02-15T00:11:26.495Z,1.90
2024-02-15T00:13:54.786Z,1.63
2024-02-15T00:16:24.158Z,1.63
2024-02-15T00:18:52.162Z,3.13
2024-02-15T00:21:20.139Z,2.20
2024-02-15T00:23:48.173Z,2.40
2024-02-15T00:26:16.129Z,1.97
2024-02-15T00:28:45.005Z,2.00
2024-02-15T00:31:12.977Z,2.00
2024-02-15T00:33:42.568Z,1.77
2024-02-15T00:36:13.441Z,1.50
2024-02-15T00:38:41.591Z,1.70
2024-02-15T00:41:09.604Z,1.40
2024-02-15T00:43:37.782Z,1.70
2024-02-15T00:46:05.995Z,1.70
2024-02-15T00:48:34.162Z,1.60
2024-02-15T00:51:04.379Z,1.63
2024-02-15T00:53:32.729Z,2.30
2024-02-15T00:56:00.792Z,1.57
2024-02-15T00:58:28.785Z,1.60
2024-02-15T01:00:56.915Z,1.70
2024-02-15T01:03:25.039Z,1.60
2024-02-15T01:05:53.061Z,1.60
2024-02-15T01:08:22.766Z,1.23
2024-02-15T01:10:50.879Z,1.90
2024-02-15T01:13:18.926Z,1.60
2024-02-15T01:15:47.278Z,1.80
2024-02-15T01:18:15.385Z,1.70
2024-02-15T01:20:43.442Z,1.90
2024-02-15T01:23:11.536Z,1.40
2024-02-15T01:25:41.839Z,1.70
2024-02-15T01:28:09.762Z,1.83
2024-02-15T01:30:38.832Z,1.70
2024-02-15T01:33:06.830Z,1.87
2024-02-15T01:35:34.997Z,1.50
2024-02-15T01:38:02.932Z,1.77
2024-02-15T01:40:30.917Z,1.63
2024-02-15T01:43:01.680Z,1.77
2024-02-15T01:45:30.496Z,1.83
2024-02-15T01:47:58.726Z,1.50
2024-02-15T01:50:29.625Z,1.67
2024-02-15T01:53:00.552Z,1.73
2024-02-15T01:55:28.483Z,1.53
2024-02-15T01:57:55.523Z,1.40
2024-02-15T02:00:25.438Z,1.67
2024-02-15T02:03:00.992Z,1.57
2024-02-15T02:05:30.787Z,1.50
2024-02-15T02:08:03.019Z,1.63
2024-02-15T02:10:34.226Z,1.57
2024-02-15T02:13:03.832Z,1.50
2024-02-15T02:15:34.011Z,1.80
2024-02-15T02:18:03.324Z,1.90
2024-02-15T02:20:31.561Z,1.60
2024-02-15T02:23:11.103Z,1.80
2024-02-15T02:25:40.892Z,2.10
2024-02-15T02:28:10.392Z,1.80
2024-02-15T02:30:38.651Z,1.77
2024-02-15T02:33:08.678Z,1.97
2024-02-15T02:35:37.957Z,1.80
2024-02-15T02:38:06.014Z,1.50
2024-02-15T02:40:35.138Z,1.57
2024-02-15T02:43:05.229Z,1.40
2024-02-15T02:45:33.152Z,1.80
2024-02-15T02:48:01.217Z,1.60
2024-02-15T02:50:29.444Z,1.80
2024-02-15T02:52:57.531Z,1.70
2024-02-15T02:55:27.601Z,1.50
2024-02-15T02:57:56.441Z,1.90
2024-02-15T03:00:26.042Z,1.40
2024-02-15T03:02:58.225Z,1.23
2024-02-15T03:05:26.876Z,1.20
2024-02-15T03:07:54.915Z,1.20
2024-02-15T03:10:23.151Z,1.20
2024-02-15T03:12:51.074Z,1.10
2024-02-15T03:15:19.975Z,1.43
2024-02-15T03:17:50.564Z,1.53
2024-02-15T03:20:25.652Z,1.13
2024-02-15T03:22:55.192Z,1.50
2024-02-15T03:25:25.241Z,1.17
2024-02-15T03:27:54.529Z,1.30
2024-02-15T03:30:22.955Z,1.10
2024-02-15T03:32:53.850Z,1.30
2024-02-15T03:35:23.662Z,1.20
2024-02-15T03:37:53.774Z,1.13
2024-02-15T03:40:23.352Z,1.17
2024-02-15T03:42:52.315Z,1.40
2024-02-15T03:45:20.499Z,1.33
2024-02-15T03:47:48.714Z,1.50
2024-02-15T03:50:20.297Z,1.37
2024-02-15T03:52:48.371Z,1.47
2024-02-15T03:55:16.791Z,1.50
2024-02-15T03:57:46.299Z,1.60
2024-02-15T04:00:22.934Z,1.40
2024-02-15T04:02:51.903Z,1.37
2024-02-15T04:05:23.128Z,1.50
2024-02-15T04:07:51.510Z,1.20
2024-02-15T04:10:20.053Z,1.47
2024-02-15T04:12:47.957Z,1.43
2024-02-15T04:15:18.825Z,1.30
2024-02-15T04:17:47.549Z,1.47
2024-02-15T04:20:17.718Z,1.23
2024-02-15T04:22:48.903Z,1.10
2024-02-15T04:25:17.982Z,1.30
2024-02-15T04:27:47.589Z,0.93
2024-02-15T04:30:17.163Z,1.00
2024-02-15T04:32:45.991Z,1.40
2024-02-15T04:35:14.927Z,0.90
2024-02-15T04:37:43.328Z,1.20
2024-02-15T04:40:15.230Z,1.00
2024-02-15T04:42:46.293Z,1.10
2024-02-15T04:45:16.716Z,1.10
2024-02-15T04:47:46.828Z,0.90
2024-02-15T04:50:16.436Z,0.80
2024-02-15T04:52:46.567Z,1.07
2024-02-15T04:55:17.037Z,0.97
2024-02-15T04:57:44.875Z,1.00
2024-02-15T05:00:16.398Z,1.07
2024-02-15T05:02:45.786Z,1.10
2024-02-15T05:05:15.055Z,1.20
2024-02-15T05:07:44.228Z,1.40
2024-02-15T05:10:13.643Z,1.33
2024-02-15T05:12:43.778Z,1.40
2024-02-15T05:15:13.500Z,1.40
2024-02-15T05:17:43.611Z,1.37
2024-02-15T05:20:14.629Z,1.07
2024-02-15T05:22:49.957Z,1.10
2024-02-15T05:25:23.822Z,0.93
2024-02-15T05:27:56.080Z,1.10
2024-02-15T05:30:24.899Z,1.30
2024-02-15T05:32:54.584Z,1.07
2024-02-15T05:35:23.048Z,1.20
2024-02-15T05:37:53.801Z,1.07
2024-02-15T05:40:21.885Z,1.60
2024-02-15T05:42:50.916Z,1.50
2024-02-15T05:45:38.534Z,0.93
2024-02-15T05:48:10.092Z,1.30
2024-02-15T05:50:38.493Z,0.97
2024-02-15T05:53:08.877Z,1.30
2024-02-15T05:55:38.939Z,0.97
2024-02-15T05:58:07.139Z,1.17
2024-02-15T06:00:36.514Z,1.00
2024-02-15T06:03:07.102Z,1.07
2024-02-15T06:05:35.074Z,1.20
2024-02-15T06:08:03.117Z,0.90
2024-02-15T06:10:31.415Z,1.03
2024-02-15T06:13:00.244Z,1.50
2024-02-15T06:15:28.249Z,1.00
2024-02-15T06:17:58.428Z,1.47
2024-02-15T06:20:29.777Z,0.90
2024-02-15T06:22:58.081Z,1.00
2024-02-15T06:25:26.093Z,1.23
2024-02-15T06:27:59.794Z,1.00
2024-02-15T06:30:45.625Z,1.03
2024-02-15T06:33:37.893Z,0.87
2024-02-15T06:36:26.898Z,1.30
2024-02-15T06:39:12.380Z,1.30
2024-02-15T06:41:41.911Z,1.00
2024-02-15T06:44:10.694Z,1.13
2024-02-15T06:46:38.727Z,1.13
2024-02-15T06:49:08.074Z,1.70
2024-02-15T06:51:36.035Z,1.40
2024-02-15T06:54:04.302Z,1.70
2024-02-15T06:56:32.318Z,1.80
2024-02-15T06:59:00.990Z,1.80
2024-02-15T07:01:29.419Z,1.80
2024-02-15T07:03:59.724Z,2.50
2024-02-15T07:06:30.210Z,2.63
2024-02-15T07:08:59.119Z,1.67
2024-02-15T07:11:27.244Z,1.90
2024-02-15T07:13:55.972Z,2.20
2024-02-15T07:16:24.397Z,2.10
2024-02-15T07:18:53.335Z,2.07
2024-02-15T07:21:26.837Z,2.00
2024-02-15T07:23:56.507Z,1.87
2024-02-15T07:26:26.324Z,2.53
2024-02-15T07:28:54.840Z,2.10
2024-02-15T07:31:23.347Z,2.40
2024-02-15T07:33:52.621Z,2.20
2024-02-15T07:36:22.782Z,2.13
2024-02-15T07:38:50.872Z,2.80
2024-02-15T07:41:27.952Z,2.20
2024-02-15T07:44:00.258Z,2.37
2024-02-15T07:46:28.087Z,2.70
2024-02-15T07:48:56.134Z,2.53
2024-02-15T07:51:31.046Z,2.40
2024-02-15T07:54:00.723Z,2.57
2024-02-15T07:56:29.945Z,2.00
2024-02-15T07:59:00.440Z,2.77
2024-02-15T08:01:28.605Z,2.10
2024-02-15T08:03:56.708Z,2.90
2024-02-15T08:06:28.014Z,2.63
2024-02-15T08:08:58.907Z,2.40
2024-02-15T08:11:28.317Z,2.13
2024-02-15T08:14:00.063Z,2.47
2024-02-15T08:16:29.254Z,2.20
2024-02-15T08:18:58.880Z,1.80
2024-02-15T08:21:32.735Z,2.20
2024-02-15T08:24:05.465Z,1.90
2024-02-15T08:26:34.894Z,1.93
2024-02-15T08:29:10.594Z,2.23
2024-02-15T08:31:38.607Z,2.20
2024-02-15T08:34:07.626Z,1.70
2024-02-15T08:36:37.574Z,1.37
2024-02-15T08:39:06.718Z,2.13
2024-02-15T08:41:36.120Z,1.60
2024-02-15T08:44:09.580Z,1.90
2024-02-15T08:46:41.730Z,2.23
2024-02-15T08:49:14.636Z,2.20
2024-02-15T08:51:49.632Z,1.83
2024-02-15T08:54:17.690Z,1.77
2024-02-15T08:56:45.663Z,1.60
2024-02-15T08:59:16.549Z,1.40
2024-02-15T09:01:47.456Z,2.13
2024-02-15T09:04:15.874Z,1.47
2024-02-15T09:06:46.070Z,1.70
2024-02-15T09:09:14.027Z,1.70
2024-02-15T09:11:44.092Z,1.63
2024-02-15T09:14:12.232Z,1.50
2024-02-15T09:16:43.117Z,1.77
2024-02-15T09:19:15.620Z,1.73
2024-02-15T09:21:43.736Z,1.83
2024-02-15T09:24:11.556Z,1.97
2024-02-15T09:26:41.623Z,1.90
2024-02-15T09:29:09.464Z,1.77
2024-02-15T09:31:43.303Z,2.67
2024-02-15T09:34:16.482Z,2.20
2024-02-15T09:36:44.473Z,1.83
2024-02-15T09:39:15.602Z,2.00
2024-02-15T09:41:46.837Z,2.00
2024-02-15T09:44:15.069Z,1.70
2024-02-15T09:46:46.839Z,2.20
2024-02-15T09:49:16.880Z,1.60
2024-02-15T09:51:48.510Z,1.90
2024-02-15T09:54:25.855Z,1.70
2024-02-15T09:56:55.824Z,2.13
2024-02-15T09:59:26.882Z,2.10
2024-02-15T10:02:03.613Z,1.87
2024-02-15T10:04:38.569Z,1.90
2024-02-15T10:07:06.957Z,1.90
2024-02-15T10:09:34.962Z,2.57
2024-02-15T10:12:03.280Z,1.20
2024-02-15T10:14:34.646Z,1.33
2024-02-15T10:17:12.259Z,1.57
2024-02-15T10:19:45.234Z,1.60
2024-02-15T10:22:15.834Z,1.60
2024-02-15T10:24:45.607Z,1.50
2024-02-15T10:27:13.745Z,1.67
2024-02-15T10:29:42.008Z,1.60
2024-02-15T10:32:11.718Z,1.70
2024-02-15T10:34:49.819Z,2.13
2024-02-15T10:37:23.285Z,1.77
2024-02-15T10:40:07.334Z,1.70
2024-02-15T10:42:36.750Z,2.07
2024-02-15T10:45:13.071Z,1.40
2024-02-15T10:47:44.550Z,2.13
2024-02-15T10:50:14.328Z,1.63
2024-02-15T10:52:53.669Z,1.63
2024-02-15T10:55:31.221Z,1.80
2024-02-15T10:58:08.118Z,1.70
2024-02-15T11:00:41.289Z,2.00
2024-02-15T11:03:10.673Z,1.93
2024-02-15T11:05:40.508Z,2.50
2024-02-15T11:08:11.413Z,2.63
2024-02-15T11:10:45.025Z,1.73
2024-02-15T11:13:15.154Z,1.67
2024-02-15T11:15:47.976Z,1.87
2024-02-15T11:18:47.089Z,2.00
2024-02-15T11:21:18.128Z,1.73
2024-02-15T11:23:46.441Z,2.20
2024-02-15T11:26:50.726Z,1.70
2024-02-15T11:29:53.404Z,1.67
2024-02-15T11:32:40.729Z,1.63
2024-02-15T11:35:16.375Z,1.60
2024-02-15T11:38:05.713Z,1.90
2024-02-15T11:41:02.111Z,2.17
2024-02-15T11:43:59.483Z,1.73
2024-02-15T11:46:31.714Z,1.73
2024-02-15T11:49:02.013Z,1.90
2024-02-15T11:51:34.675Z,2.07
2024-02-15T11:54:09.554Z,1.87
2024-02-15T11:57:06.466Z,2.63
2024-02-15T11:59:54.247Z,1.93
2024-02-15T12:02:40.541Z,1.70
2024-02-15T12:05:26.415Z,1.50
2024-02-15T12:08:12.548Z,3.13
2024-02-15T12:10:59.842Z,2.20
2024-02-15T12:13:45.084Z,1.93
2024-02-15T12:16:35.570Z,1.70
2024-02-15T12:19:04.594Z,1.83
2024-02-15T12:21:37.033Z,1.60
2024-02-15T12:24:07.269Z,1.40
2024-02-15T12:26:36.800Z,1.97
2024-02-15T12:29:07.404Z,1.63
2024-02-15T12:31:39.423Z,2.03
2024-02-15T12:34:09.256Z,1.90
2024-02-15T12:36:39.104Z,2.00
2024-02-15T12:39:13.261Z,1.40
2024-02-15T12:41:45.514Z,1.60
2024-02-15T12:44:13.324Z,2.43
2024-02-15T12:46:43.365Z,2.27
2024-02-15T12:49:14.551Z,2.30
2024-02-15T12:51:51.713Z,2.37
2024-02-15T12:54:22.515Z,1.83
2024-02-15T12:56:52.917Z,1.70
2024-02-15T12:59:22.272Z,1.70
2024-02-15T13:01:50.713Z,1.60
2024-02-15T13:04:25.450Z,1.80
2024-02-15T13:06:53.595Z,2.07
2024-02-15T13:09:24.126Z,1.90
2024-02-15T13:11:54.901Z,2.53
2024-02-15T13:14:26.932Z,1.90
2024-02-15T13:17:02.017Z,2.07
2024-02-15T13:19:32.534Z,2.20
2024-02-15T13:22:00.550Z,1.90
2024-02-15T13:24:28.415Z,1.70
2024-02-15T13:26:59.467Z,1.50
2024-02-15T13:29:28.189Z,1.60
2024-02-15T13:31:56.199Z,1.70
2024-02-15T13:34:24.162Z,1.60
2024-02-15T13:36:53.228Z,2.13
2024-02-15T13:39:23.062Z,1.50
2024-02-15T13:41:50.985Z,1.80
2024-02-15T13:44:25.612Z,1.73
2024-02-15T13:46:56.606Z,2.13
2024-02-15T13:49:33.124Z,1.80
2024-02-15T13:52:03.810Z,1.83
2024-02-15T13:54:32.550Z,2.50
2024-02-15T13:57:01.261Z,1.97
2024-02-15T13:59:31.005Z,1.63
2024-02-15T14:01:59.132Z,1.70
2024-02-15T14:04:29.649Z,1.93
2024-02-15T14:07:00.353Z,2.17
2024-02-15T14:09:30.547Z,2.30
2024-02-15T14:11:59.218Z,2.13
2024-02-15T14:14:28.313Z,1.90
2024-02-15T14:16:57.459Z,1.80
2024-02-15T14:19:27.544Z,2.00
2024-02-15T14:21:56.570Z,2.10
2024-02-15T14:24:24.545Z,1.90
2024-02-15T14:26:52.645Z,1.90
2024-02-15T14:29:24.113Z,2.10
2024-02-15T14:32:16.253Z,1.83
2024-02-15T14:34:44.073Z,1.73
2024-02-15T14:37:11.999Z,2.07
2024-02-15T14:39:39.876Z,2.23
2024-02-15T14:44:39.891Z,2.40
2024-02-15T14:47:14.724Z,1.97
2024-02-15T14:49:42.618Z,2.40
2024-02-15T14:52:10.402Z,1.93
2024-02-15T14:54:38.293Z,2.30
2024-02-15T14:57:08.003Z,1.73
2024-02-15T14:59:35.867Z,2.20
2024-02-15T15:02:13.005Z,1.77
2024-02-15T15:05:09.558Z,1.83
2024-02-15T15:07:55.146Z,1.63
2024-02-15T15:10:40.542Z,2.50
2024-02-15T15:13:08.910Z,1.87
2024-02-15T15:15:38.287Z,2.00
2024-02-15T15:18:06.769Z,2.30
2024-02-15T15:20:35.957Z,1.83
2024-02-15T15:23:03.873Z,2.30
2024-02-15T15:25:31.910Z,1.50
2024-02-15T15:27:59.980Z,1.63
2024-02-15T15:30:28.714Z,1.70
2024-02-15T15:32:56.878Z,1.70
2024-02-15T15:35:27.149Z,1.80
2024-02-15T15:37:58.282Z,2.13
2024-02-15T15:40:27.321Z,2.33
2024-02-15T15:42:55.955Z,2.23
2024-02-15T15:45:24.881Z,2.13
2024-02-15T15:47:52.810Z,1.90
2024-02-15T15:50:22.455Z,1.93
2024-02-15T15:52:52.416Z,2.10
2024-02-15T15:55:27.200Z,3.20
2024-02-15T15:57:55.211Z,2.47
2024-02-15T16:00:24.167Z,1.77
2024-02-15T16:02:52.922Z,2.60
2024-02-15T16:05:21.412Z,2.03
2024-02-15T16:07:50.364Z,2.40
2024-02-15T16:10:19.326Z,1.80
2024-02-15T16:12:49.418Z,2.40
2024-02-15T16:15:19.846Z,2.10
2024-02-15T16:17:48.139Z,2.47
2024-02-15T16:20:16.378Z,2.40
2024-02-15T16:22:45.037Z,2.80
2024-02-15T16:25:31.686Z,2.27
2024-02-15T16:28:01.890Z,2.27
2024-02-15T16:30:29.973Z,2.17
2024-02-15T16:32:58.197Z,2.43
2024-02-15T16:35:26.473Z,2.40
2024-02-15T16:37:54.727Z,2.97
2024-02-15T16:40:24.149Z,2.00
2024-02-15T16:42:54.658Z,2.23
2024-02-15T16:45:24.148Z,2.20
2024-02-15T16:47:57.468Z,2.60
2024-02-15T16:50:26.181Z,2.60
2024-02-15T16:52:54.391Z,2.53
2024-02-15T16:55:29.127Z,2.67
2024-02-15T16:58:03.224Z,2.00
2024-02-15T17:00:33.762Z,1.97
2024-02-15T17:03:07.000Z,2.73
2024-02-15T17:05:37.052Z,2.80
2024-02-15T17:08:07.521Z,2.47
2024-02-15T17:10:36.771Z,2.53
2024-02-15T17:13:07.008Z,2.70
2024-02-15T17:15:36.799Z,2.60
2024-02-15T17:18:05.873Z,2.50
2024-02-15T17:20:34.084Z,2.50
2024-02-15T17:23:03.362Z,2.57
2024-02-15T17:25:31.221Z,2.30
2024-02-15T17:28:00.253Z,2.77
2024-02-15T17:30:28.495Z,3.00
2024-02-15T17:32:57.762Z,2.80
2024-02-15T17:35:26.687Z,2.10
2024-02-15T17:37:56.589Z,2.17
2024-02-15T17:40:24.644Z,3.37
2024-02-15T17:42:52.833Z,3.00
2024-02-15T17:45:20.947Z,4.57
2024-02-15T17:47:48.785Z,4.50
2024-02-15T17:50:21.317Z,3.80
2024-02-15T17:52:49.639Z,8.30
2024-02-15T17:55:20.442Z,7.73
2024-02-15T17:57:52.121Z,7.30
2024-02-15T18:00:21.964Z,5.67
2024-02-15T18:02:51.366Z,4.77
2024-02-15T18:05:21.745Z,4.87
2024-02-15T18:07:50.354Z,3.90
2024-02-15T18:10:22.623Z,3.97
2024-02-15T18:12:50.940Z,3.60
2024-02-15T18:15:25.912Z,4.10
2024-02-15T18:17:57.483Z,3.70
2024-02-15T18:20:30.550Z,4.50
2024-02-15T18:22:58.342Z,4.87
2024-02-15T18:25:26.485Z,5.23
2024-02-15T18:27:54.294Z,6.97
2024-02-15T18:30:24.455Z,6.87
2024-02-15T18:32:54.775Z,6.10
2024-02-15T18:35:25.571Z,6.40
2024-02-15T18:37:55.174Z,5.33
2024-02-15T18:40:25.486Z,6.10
2024-02-15T18:42:54.747Z,4.90
2024-02-15T18:45:24.249Z,4.93
2024-02-15T18:47:52.739Z,4.83
2024-02-15T18:50:23.325Z,5.40
2024-02-15T18:52:52.049Z,5.83
2024-02-15T18:55:22.171Z,4.90
2024-02-15T18:57:50.843Z,4.80
2024-02-15T19:00:31.550Z,4.93
2024-02-15T19:03:05.837Z,4.60
2024-02-15T19:05:37.358Z,4.53
2024-02-15T19:08:06.026Z,3.70
2024-02-15T19:10:37.386Z,5.00
2024-02-15T19:13:05.850Z,3.83
2024-02-15T19:15:34.012Z,3.63
2024-02-15T19:18:06.250Z,3.80
2024-02-15T19:20:37.692Z,3.93
2024-02-15T19:23:08.866Z,4.20
2024-02-15T19:25:38.167Z,3.30
2024-02-15T19:28:09.878Z,3.70
2024-02-15T19:30:38.284Z,3.83
2024-02-15T19:33:07.252Z,7.90
2024-02-15T19:35:35.244Z,10.03
2024-02-15T19:38:03.742Z,8.80
2024-02-15T19:40:31.771Z,9.73
2024-02-15T19:43:01.145Z,7.90
2024-02-15T19:45:29.100Z,6.40
2024-02-15T19:47:57.745Z,7.70
2024-02-15T19:50:28.876Z,6.10
2024-02-15T19:52:58.615Z,8.20
2024-02-15T19:55:27.456Z,8.10
2024-02-15T19:57:57.710Z,7.53
2024-02-15T20:00:30.622Z,7.70
2024-02-15T20:03:00.817Z,7.90
2024-02-15T20:05:28.939Z,8.23
2024-02-15T20:07:57.749Z,6.97
2024-02-15T20:10:28.475Z,6.80
2024-02-15T20:12:56.450Z,4.97
2024-02-15T20:15:28.558Z,3.60
2024-02-15T20:17:58.619Z,3.43
2024-02-15T20:20:27.446Z,3.60
2024-02-15T20:22:55.407Z,4.40
2024-02-15T20:25:23.388Z,4.13
2024-02-15T20:27:51.344Z,3.77
2024-02-15T20:30:21.289Z,4.03
2024-02-15T20:32:49.252Z,3.03
2024-02-15T20:35:22.128Z,2.87
2024-02-15T20:37:50.372Z,3.00
2024-02-15T20:40:18.763Z,2.57
2024-02-15T20:42:47.672Z,2.60
2024-02-15T20:45:15.882Z,3.67
2024-02-15T20:47:44.624Z,2.60
2024-02-15T20:50:14.069Z,3.70
2024-02-15T20:52:44.484Z,3.40
2024-02-15T20:55:13.881Z,3.07
2024-02-15T20:57:41.924Z,4.93
2024-02-15T21:00:15.229Z,2.90
2024-02-15T21:02:45.129Z,3.37
2024-02-15T21:05:14.446Z,4.00
2024-02-15T21:07:43.787Z,4.13
2024-02-15T21:10:12.676Z,4.63
2024-02-15T21:12:40.758Z,4.20
2024-02-15T21:15:10.729Z,5.40
2024-02-15T21:17:42.797Z,5.10
2024-02-15T21:20:13.797Z,4.17
2024-02-15T21:22:53.212Z,4.17
2024-02-15T21:25:23.174Z,5.20
2024-02-15T21:27:54.092Z,6.10
2024-02-15T21:30:22.138Z,5.93
2024-02-15T21:32:53.805Z,3.57
2024-02-15T21:35:24.047Z,4.30
2024-02-15T21:37:55.727Z,4.27
2024-02-15T21:40:23.545Z,4.87
2024-02-15T21:42:53.192Z,4.37
2024-02-15T21:45:21.184Z,4.60
2024-02-15T21:47:49.294Z,4.27
2024-02-15T21:50:17.525Z,4.57
2024-02-15T21:52:45.503Z,3.10
2024-02-15T21:55:14.692Z,2.30
2024-02-15T21:57:42.779Z,2.23
2024-02-15T22:00:11.936Z,2.67
2024-02-15T22:02:40.049Z,3.13
2024-02-15T22:05:09.142Z,2.10
2024-02-15T22:07:37.088Z,2.50
2024-02-15T22:10:10.384Z,2.70
2024-02-15T22:12:41.557Z,3.10
2024-02-15T22:15:11.038Z,2.33
2024-02-15T22:17:42.572Z,2.67
2024-02-15T22:20:14.850Z,2.10
2024-02-15T22:22:45.083Z,2.33
2024-02-15T22:25:14.338Z,2.50
2024-02-15T22:27:47.378Z,2.80
2024-02-15T22:30:16.137Z,2.37
2024-02-15T22:32:44.153Z,2.30
2024-02-15T22:35:12.702Z,2.47
2024-02-15T22:37:40.667Z,2.23
2024-02-15T22:40:15.790Z,1.70
2024-02-15T22:42:47.736Z,1.90
2024-02-15T22:45:15.792Z,1.93
2024-02-15T22:47:44.316Z,1.77
2024-02-15T22:50:12.826Z,2.13
2024-02-15T22:52:40.944Z,1.97
2024-02-15T22:55:11.547Z,2.40
2024-02-15T22:57:39.576Z,2.13
2024-02-15T23:00:14.297Z,1.87
2024-02-15T23:02:42.491Z,2.00
2024-02-15T23:05:10.761Z,2.20
2024-02-15T23:07:39.787Z,2.60
2024-02-15T23:10:08.417Z,2.03
2024-02-15T23:12:37.191Z,1.90
2024-02-15T23:15:15.554Z,2.20
2024-02-15T23:17:46.837Z,2.40
2024-02-15T23:20:17.684Z,2.43
2024-02-15T23:22:51.721Z,2.57
2024-02-15T23:25:24.682Z,2.10
2024-02-15T23:27:52.584Z,3.80
2024-02-15T23:30:27.846Z,3.30
2024-02-15T23:32:59.073Z,3.13
2024-02-15T23:35:33.016Z,2.50
2024-02-15T23:38:21.959Z,2.47
2024-02-15T23:40:57.064Z,2.70
2024-02-15T23:43:26.427Z,3.00
2024-02-15T23:46:11.574Z,2.10
2024-02-15T23:48:41.612Z,1.53
2024-02-15T23:51:10.574Z,2.27
2024-02-15T23:53:38.398Z,1.80
2024-02-15T23:56:11.505Z,1.70
2024-02-15T23:58:40.976Z,2.03
